createdAt,value
2024-03-02T00:03:26.239Z,52.60
2024-03-02T00:08:28.785Z,53.20
2024-03-02T00:13:34.948Z,51.60
2024-03-02T00:18:38.020Z,53.10
2024-03-02T00:23:40.851Z,47.50
2024-03-02T00:28:47.475Z,53.30
2024-03-02T00:33:50.396Z,51.70
2024-03-02T00:38:55.267Z,52.40
2024-03-02T00:44:09.528Z,53.30
2024-03-02T00:49:27.101Z,50.30
2024-03-02T00:54:30.237Z,51.80
2024-03-02T00:59:33.145Z,52.70
2024-03-02T01:04:35.434Z,50.80
2024-03-02T01:09:37.370Z,52.80
2024-03-02T01:14:39.218Z,52.80
2024-03-02T01:19:43.208Z,50.80
2024-03-02T01:24:45.275Z,51.40
2024-03-02T01:29:47.351Z,53.20
2024-03-02T01:34:49.600Z,52.10
2024-03-02T01:39:51.817Z,48.80
2024-03-02T01:44:53.923Z,49.30
2024-03-02T01:49:55.909Z,50.60
2024-03-02T01:54:57.897Z,50.70
2024-03-02T02:00:00.021Z,50.50
2024-03-02T02:05:01.912Z,49.40
2024-03-02T02:10:04.113Z,45.70
2024-03-02T02:15:32.033Z,47.40
2024-03-02T02:20:34.385Z,45.40
2024-03-02T02:25:36.479Z,46.30
2024-03-02T02:30:38.786Z,41.90
2024-03-02T02:35:40.737Z,42.10
2024-03-02T02:40:42.647Z,43.80
2024-03-02T02:45:44.500Z,43.90
2024-03-02T02:50:46.564Z,40.00
2024-03-02T02:55:48.482Z,40.40
2024-03-02T03:00:50.777Z,40.20
2024-03-02T03:05:52.945Z,39.20
2024-03-02T03:10:54.827Z,41.70
2024-03-02T03:15:57.230Z,39.90
2024-03-02T03:20:59.263Z,41.60
2024-03-02T03:26:02.071Z,37.90
2024-03-02T03:31:04.718Z,38.90
2024-03-02T03:36:07.005Z,39.40
2024-03-02T03:41:09.049Z,39.80
2024-03-02T03:46:11.721Z,39.10
2024-03-02T03:51:13.686Z,41.00
2024-03-02T03:56:15.669Z,40.10
2024-03-02T04:01:17.789Z,40.60
2024-03-02T04:06:19.948Z,39.90
2024-03-02T04:11:22.029Z,41.00
2024-03-02T04:16:24.152Z,39.40
2024-03-02T04:21:26.009Z,39.40
2024-03-02T04:26:28.096Z,39.50
2024-03-02T04:31:30.261Z,38.70
2024-03-02T04:36:32.575Z,37.70
2024-03-02T04:41:34.525Z,37.70
2024-03-02T04:46:36.518Z,39.20
2024-03-02T04:51:38.691Z,40.60
2024-03-02T04:56:51.253Z,39.60
2024-03-02T05:01:53.477Z,34.50
2024-03-02T05:06:57.449Z,34.90
2024-03-02T05:12:18.481Z,34.60
2024-03-02T05:17:20.320Z,36.60
2024-03-02T05:22:22.147Z,35.90
2024-03-02T05:27:24.163Z,35.50
2024-03-02T05:32:26.752Z,36.60
2024-03-02T05:37:29.644Z,35.90
2024-03-02T05:42:31.680Z,36.10
2024-03-02T05:47:34.310Z,35.30
2024-03-02T05:52:36.344Z,34.00
2024-03-02T05:57:57.042Z,34.20
2024-03-02T06:02:59.294Z,33.60
2024-03-02T06:08:01.256Z,34.60
2024-03-02T06:13:03.251Z,33.60
2024-03-02T06:18:07.863Z,35.20
2024-03-02T06:23:10.544Z,37.50
2024-03-02T06:28:12.464Z,35.80
2024-03-02T06:33:14.489Z,37.40
2024-03-02T06:38:16.448Z,36.80
2024-03-02T06:43:18.429Z,38.80
2024-03-02T06:48:24.349Z,37.50
2024-03-02T06:53:26.807Z,38.50
2024-03-02T06:58:28.804Z,36.90
2024-03-02T07:03:30.965Z,36.40
2024-03-02T07:08:33.048Z,37.20
2024-03-02T07:13:35.974Z,37.10
2024-03-02T07:18:46.607Z,36.20
2024-03-02T07:23:48.583Z,35.70
2024-03-02T07:28:50.591Z,35.40
2024-03-02T07:33:52.820Z,35.90
2024-03-02T07:38:55.820Z,37.10
2024-03-02T07:43:58.092Z,36.40
2024-03-02T07:49:00.192Z,38.20
2024-03-02T07:54:02.196Z,37.80
2024-03-02T07:59:05.239Z,38.70
2024-03-02T08:04:07.921Z,36.10
2024-03-02T08:09:13.776Z,37.40
2024-03-02T08:14:15.757Z,36.80
2024-03-02T08:19:17.923Z,36.20
2024-03-02T08:24:20.306Z,39.60
2024-03-02T08:29:22.393Z,41.10
2024-03-02T08:34:27.921Z,37.90
2024-03-02T08:39:29.942Z,37.60
2024-03-02T08:44:32.444Z,38.40
2024-03-02T08:49:35.538Z,37.40
2024-03-02T08:54:37.603Z,37.00
2024-03-02T08:59:40.314Z,38.80
2024-03-02T09:04:42.380Z,37.30
2024-03-02T09:09:44.358Z,37.30
2024-03-02T09:14:48.592Z,38.80
2024-03-02T09:19:54.014Z,37.20
2024-03-02T09:24:56.036Z,36.70
2024-03-02T09:29:57.918Z,39.00
2024-03-02T09:35:00.139Z,39.50
2024-03-02T09:40:02.268Z,38.00
2024-03-02T09:45:04.786Z,39.60
2024-03-02T09:50:08.539Z,37.60
2024-03-02T09:55:10.978Z,40.60
2024-03-02T10:00:16.283Z,40.10
2024-03-02T10:05:27.063Z,38.30
2024-03-02T10:10:40.999Z,37.50
2024-03-02T10:15:43.681Z,38.10
2024-03-02T10:20:45.883Z,38.10
2024-03-02T10:25:54.934Z,36.80
2024-03-02T10:31:00.408Z,35.50
2024-03-02T10:36:03.513Z,36.20
2024-03-02T10:41:06.019Z,36.80
2024-03-02T10:46:07.926Z,33.20
2024-03-02T10:51:09.868Z,32.50
2024-03-02T10:56:17.538Z,31.30
2024-03-02T11:01:21.291Z,34.00
2024-03-02T11:06:24.877Z,33.20
2024-03-02T11:11:36.112Z,34.70
2024-03-02T11:16:40.936Z,34.90
2024-03-02T11:21:44.650Z,35.60
2024-03-02T11:26:46.896Z,34.80
2024-03-02T11:32:19.417Z,34.40
2024-03-02T11:37:22.016Z,26.00
2024-03-02T11:42:24.094Z,23.60
2024-03-02T11:47:34.683Z,25.20
2024-03-02T11:52:37.985Z,24.50
2024-03-02T11:57:39.966Z,24.50
2024-03-02T12:02:46.244Z,23.50
2024-03-02T12:07:48.779Z,22.20
2024-03-02T12:13:00.106Z,23.00
2024-03-02T12:18:03.729Z,21.80
2024-03-02T12:23:06.891Z,12.80
2024-03-02T12:28:09.949Z,6.40
2024-03-02T12:33:12.930Z,7.30
2024-03-02T12:38:16.163Z,7.20
2024-03-02T12:43:18.128Z,8.70
2024-03-02T12:48:20.329Z,9.40
2024-03-02T12:53:23.041Z,9.20
2024-03-02T12:58:25.210Z,9.20
2024-03-02T13:03:27.368Z,9.20
2024-03-02T13:08:29.380Z,9.10
2024-03-02T13:13:35.653Z,8.70
2024-03-02T13:18:39.601Z,10.10
2024-03-02T13:23:41.528Z,10.50
2024-03-02T13:28:43.461Z,12.30
2024-03-02T13:33:45.632Z,13.20
2024-03-02T13:38:47.504Z,14.80
2024-03-02T13:43:51.211Z,15.50
2024-03-02T13:48:55.429Z,16.10
2024-03-02T13:54:00.361Z,16.60
2024-03-02T13:59:02.388Z,17.20
2024-03-02T14:04:04.594Z,18.40
2024-03-02T14:09:06.500Z,17.60
2024-03-02T14:14:08.506Z,18.20
2024-03-02T14:19:10.948Z,19.30
2024-03-02T14:24:13.112Z,19.40
2024-03-02T14:29:15.381Z,20.60
2024-03-02T14:34:17.502Z,22.50
2024-03-02T14:39:20.961Z,25.10
2024-03-02T14:44:23.326Z,26.00
2024-03-02T14:49:26.325Z,25.10
2024-03-02T14:54:28.324Z,26.60
2024-03-02T14:59:31.043Z,26.00
2024-03-02T15:04:33.022Z,24.90
2024-03-02T15:09:36.860Z,24.90
2024-03-02T15:14:39.843Z,23.70
2024-03-02T15:19:42.362Z,22.20
2024-03-02T15:24:45.142Z,19.70
2024-03-02T15:29:49.411Z,17.90
2024-03-02T15:34:51.452Z,18.60
2024-03-02T15:39:53.594Z,16.70
2024-03-02T15:44:56.232Z,18.30
2024-03-02T15:49:58.112Z,18.40
2024-03-02T15:55:00.244Z,17.30
2024-03-02T16:00:02.208Z,17.50
2024-03-02T16:05:14.427Z,21.60
2024-03-02T16:10:17.527Z,28.80
2024-03-02T16:15:19.765Z,33.00
2024-03-02T16:20:21.672Z,38.00
2024-03-02T16:25:26.294Z,34.90
2024-03-02T16:30:28.413Z,33.80
2024-03-02T16:35:30.431Z,34.70
2024-03-02T16:40:33.061Z,37.00
2024-03-02T16:45:35.564Z,36.20
2024-03-02T16:50:37.590Z,36.40
2024-03-02T16:55:39.526Z,31.90
2024-03-02T17:00:42.297Z,32.10
2024-03-02T17:05:44.332Z,31.40
2024-03-02T17:10:47.448Z,32.70
2024-03-02T17:15:49.411Z,34.80
2024-03-02T17:20:51.777Z,39.40
2024-03-02T17:25:53.800Z,39.70
2024-03-02T17:30:56.723Z,39.20
2024-03-02T17:35:59.145Z,40.00
2024-03-02T17:41:02.044Z,37.40
2024-03-02T17:46:04.321Z,37.90
2024-03-02T17:51:09.413Z,35.30
2024-03-02T17:56:12.497Z,36.30
2024-03-02T18:01:16.594Z,37.00
2024-03-02T18:06:18.864Z,39.10
2024-03-02T18:11:24.855Z,40.10
2024-03-02T18:16:27.463Z,38.30
2024-03-02T18:21:30.212Z,43.40
2024-03-02T18:26:34.460Z,42.00
2024-03-02T18:31:36.553Z,49.70
2024-03-02T18:36:38.432Z,50.20
2024-03-02T18:41:40.344Z,54.90
2024-03-02T18:46:42.574Z,57.80
2024-03-02T18:51:44.488Z,54.60
2024-03-02T18:56:46.618Z,60.20
2024-03-02T19:01:50.580Z,58.00
2024-03-02T19:06:52.904Z,56.30
2024-03-02T19:11:56.504Z,55.40
2024-03-02T19:16:58.525Z,58.80
2024-03-02T19:22:05.451Z,56.10
2024-03-02T19:27:12.528Z,55.10
2024-03-02T19:32:18.412Z,60.00
2024-03-02T19:37:22.904Z,56.60
2024-03-02T19:42:24.770Z,56.20
2024-03-02T19:47:27.681Z,58.30
2024-03-02T19:52:29.873Z,59.50
2024-03-02T19:57:32.075Z,54.10
2024-03-02T20:02:34.130Z,57.50
2024-03-02T20:07:37.162Z,57.20
2024-03-02T20:12:39.583Z,56.10
2024-03-02T20:17:41.624Z,59.80
2024-03-02T20:22:44.292Z,60.70
2024-03-02T20:27:46.562Z,59.50
2024-03-02T20:32:48.550Z,58.20
2024-03-02T20:37:51.388Z,61.40
2024-03-02T20:42:53.257Z,58.30
2024-03-02T20:47:55.245Z,58.90
2024-03-02T20:53:01.705Z,58.00
2024-03-02T20:58:03.726Z,58.30
2024-03-02T21:03:06.154Z,58.20
2024-03-02T21:08:10.095Z,53.80
2024-03-02T21:13:12.154Z,53.20
2024-03-02T21:18:14.169Z,50.90
2024-03-02T21:23:17.484Z,52.40
2024-03-02T21:28:19.602Z,50.60
2024-03-02T21:33:21.497Z,53.20
2024-03-02T21:38:25.015Z,47.90
2024-03-02T21:43:32.386Z,50.30
2024-03-02T21:48:35.650Z,50.20
2024-03-02T21:53:37.553Z,50.00
2024-03-02T21:58:40.477Z,52.70
2024-03-02T22:03:46.882Z,53.30
2024-03-02T22:08:53.005Z,53.10
2024-03-02T22:13:55.010Z,55.50
2024-03-02T22:18:56.981Z,55.90
2024-03-02T22:23:58.944Z,53.10
2024-03-02T22:29:00.855Z,55.90
2024-03-02T22:34:02.743Z,58.90
2024-03-02T22:39:05.073Z,57.90
2024-03-02T22:44:07.181Z,57.00
2024-03-02T22:49:09.255Z,54.90
2024-03-02T22:54:12.796Z,53.80
2024-03-02T22:59:15.526Z,55.50
2024-03-02T23:04:17.406Z,55.00
2024-03-02T23:09:19.362Z,56.50
2024-03-02T23:14:21.549Z,52.90
2024-03-02T23:19:24.283Z,53.70
2024-03-02T23:24:26.353Z,53.30
2024-03-02T23:29:28.250Z,52.80
2024-03-02T23:34:30.287Z,57.70
2024-03-02T23:39:51.386Z,55.50
2024-03-02T23:44:53.261Z,54.30
2024-03-02T23:49:55.324Z,51.90
2024-03-02T23:54:57.366Z,51.80
2024-03-02T23:59:59.604Z,52.30
